N174K KARR-KARR
Flight info
| Callsign | N174K |
|---|---|
| Flight time | 0h 17m |
| Altitude | 8500 |
| Route | WEST DEPARTURE/PATTERN |
| Aircraft | C172/L-V/N |
Departure
| Time | 2026-05-04 00:25 |
|---|---|
| Airport | Aurora Municipal Airport (KARR) |
Arrival
| Time | 2026-05-04 00:42 |
|---|---|
| Airport | Aurora Municipal Airport (KARR) |
| Time | Latitude | Longitude | Altitude | Speed | Heading |
|---|---|---|---|---|---|
| 2026-05-04 00:16 | 41.76840 | -88.46652 | 707 ft | 0 kts | 141° |
| 2026-05-04 00:18 | 41.76847 | -88.46651 | 697 ft | 2 kts | 189° |
| 2026-05-04 00:18 | 41.76863 | -88.46648 | 708 ft | 2 kts | 190° |
| 2026-05-04 00:18 | 41.76869 | -88.46646 | 703 ft | 0 kts | 196° |
| 2026-05-04 00:19 | 41.76867 | -88.46647 | 708 ft | 2 kts | 186° |
| 2026-05-04 00:20 | 41.76861 | -88.46628 | 706 ft | 7 kts | 81° |
| 2026-05-04 00:20 | 41.76863 | -88.46535 | 708 ft | 13 kts | 90° |
| 2026-05-04 00:20 | 41.76863 | -88.46409 | 711 ft | 13 kts | 90° |
| 2026-05-04 00:20 | 41.76885 | -88.46313 | 711 ft | 10 kts | 24° |
| 2026-05-04 00:21 | 41.76902 | -88.46309 | 714 ft | 0 kts | 0° |
| 2026-05-04 00:21 | 41.76930 | -88.46293 | 710 ft | 10 kts | 68° |
| 2026-05-04 00:21 | 41.76932 | -88.46186 | 713 ft | 9 kts | 78° |
| 2026-05-04 00:21 | 41.76964 | -88.46163 | 711 ft | 0 kts | 358° |
| 2026-05-04 00:23 | 41.76965 | -88.46163 | 711 ft | 0 kts | 349° |
| 2026-05-04 00:23 | 41.77020 | -88.46170 | 714 ft | 13 kts | 330° |
| 2026-05-04 00:23 | 41.77042 | -88.46271 | 710 ft | 13 kts | 268° |
| 2026-05-04 00:23 | 41.77039 | -88.46622 | 706 ft | 60 kts | 270° |
| 2026-05-04 00:24 | 41.77029 | -88.47337 | 706 ft | 90 kts | 269° |
| 2026-05-04 00:24 | 41.77028 | -88.48216 | 822 ft | 95 kts | 268° |
| 2026-05-04 00:24 | 41.77007 | -88.49113 | 979 ft | 96 kts | 269° |
| 2026-05-04 00:24 | 41.76997 | -88.49994 | 1153 ft | 92 kts | 264° |
| 2026-05-04 00:25 | 41.76514 | -88.50463 | 1190 ft | 116 kts | 168° |
| 2026-05-04 00:25 | 41.76020 | -88.49684 | 1342 ft | 120 kts | 99° |
| 2026-05-04 00:25 | 41.76033 | -88.48611 | 1529 ft | 113 kts | 84° |
| 2026-05-04 00:25 | 41.76141 | -88.47534 | 1553 ft | 121 kts | 89° |
| 2026-05-04 00:26 | 41.76206 | -88.46381 | 1618 ft | 120 kts | 89° |
| 2026-05-04 00:26 | 41.76229 | -88.45315 | 1636 ft | 111 kts | 100° |
| 2026-05-04 00:26 | 41.76225 | -88.44338 | 1534 ft | 102 kts | 79° |
| 2026-05-04 00:26 | 41.76640 | -88.43607 | 1282 ft | 95 kts | 18° |
| 2026-05-04 00:27 | 41.77164 | -88.43664 | 1143 ft | 68 kts | 303° |
| 2026-05-04 00:27 | 41.77165 | -88.44198 | 977 ft | 60 kts | 255° |
| 2026-05-04 00:27 | 41.77083 | -88.44721 | 883 ft | 57 kts | 261° |
| 2026-05-04 00:27 | 41.77060 | -88.45243 | 862 ft | 55 kts | 266° |
| 2026-05-04 00:28 | 41.77046 | -88.45776 | 814 ft | 59 kts | 266° |
| 2026-05-04 00:28 | 41.77040 | -88.46336 | 730 ft | 59 kts | 265° |
| 2026-05-04 00:28 | 41.77031 | -88.46849 | 706 ft | 51 kts | 269° |
| 2026-05-04 00:28 | 41.77029 | -88.47446 | 707 ft | 80 kts | 268° |
| 2026-05-04 00:29 | 41.77024 | -88.48253 | 814 ft | 89 kts | 266° |
| 2026-05-04 00:29 | 41.76991 | -88.49091 | 978 ft | 92 kts | 266° |
| 2026-05-04 00:29 | 41.76945 | -88.49909 | 1203 ft | 86 kts | 259° |
| 2026-05-04 00:29 | 41.76822 | -88.50625 | 1505 ft | 78 kts | 250° |
| 2026-05-04 00:30 | 41.76395 | -88.51165 | 1638 ft | 90 kts | 210° |
| 2026-05-04 00:30 | 41.75834 | -88.51372 | 1805 ft | 90 kts | 215° |
| 2026-05-04 00:30 | 41.75235 | -88.51714 | 1961 ft | 91 kts | 205° |
| 2026-05-04 00:30 | 41.74630 | -88.51350 | 1952 ft | 134 kts | 118° |
| 2026-05-04 00:31 | 41.74602 | -88.50186 | 2115 ft | 118 kts | 88° |
| 2026-05-04 00:31 | 41.74724 | -88.49053 | 2081 ft | 132 kts | 83° |
| 2026-05-04 00:31 | 41.74845 | -88.47830 | 2112 ft | 128 kts | 89° |
| 2026-05-04 00:31 | 41.74926 | -88.46650 | 2090 ft | 132 kts | 89° |
| 2026-05-04 00:32 | 41.75002 | -88.45484 | 2017 ft | 123 kts | 91° |
| 2026-05-04 00:32 | 41.75056 | -88.44379 | 1864 ft | 118 kts | 87° |
| 2026-05-04 00:32 | 41.75540 | -88.43537 | 1603 ft | 115 kts | 8° |
| 2026-05-04 00:32 | 41.76162 | -88.43797 | 1363 ft | 92 kts | 313° |
| 2026-05-04 00:33 | 41.76655 | -88.44253 | 1209 ft | 84 kts | 319° |
| 2026-05-04 00:33 | 41.77045 | -88.45556 | 831 ft | 76 kts | 267° |
| 2026-05-04 00:33 | 41.77042 | -88.46222 | 724 ft | 67 kts | 264° |
| 2026-05-04 00:34 | 41.77032 | -88.46818 | 706 ft | 71 kts | 270° |
| 2026-05-04 00:34 | 41.77029 | -88.47610 | 729 ft | 94 kts | 267° |
| 2026-05-04 00:34 | 41.77010 | -88.48440 | 974 ft | 87 kts | 267° |
| 2026-05-04 00:34 | 41.76963 | -88.49266 | 1128 ft | 88 kts | 260° |
| 2026-05-04 00:35 | 41.76677 | -88.49900 | 1301 ft | 93 kts | 195° |
| 2026-05-04 00:35 | 41.75985 | -88.49776 | 1441 ft | 105 kts | 173° |
| 2026-05-04 00:35 | 41.75362 | -88.49294 | 1649 ft | 121 kts | 127° |
| 2026-05-04 00:35 | 41.75339 | -88.48100 | 1790 ft | 131 kts | 85° |
| 2026-05-04 00:36 | 41.75489 | -88.46950 | 1845 ft | 128 kts | 83° |
| 2026-05-04 00:36 | 41.75655 | -88.45746 | 1796 ft | 128 kts | 84° |
| 2026-05-04 00:36 | 41.75788 | -88.44592 | 1716 ft | 125 kts | 88° |
| 2026-05-04 00:36 | 41.76173 | -88.43642 | 1511 ft | 115 kts | 20° |
| 2026-05-04 00:37 | 41.76889 | -88.43581 | 1291 ft | 97 kts | 329° |
| 2026-05-04 00:37 | 41.77110 | -88.44237 | 1094 ft | 79 kts | 259° |
| 2026-05-04 00:37 | 41.77046 | -88.44985 | 931 ft | 84 kts | 269° |
| 2026-05-04 00:37 | 41.77047 | -88.45768 | 815 ft | 83 kts | 268° |
| 2026-05-04 00:38 | 41.77042 | -88.46526 | 714 ft | 76 kts | 267° |
| 2026-05-04 00:38 | 41.77034 | -88.47165 | 707 ft | 61 kts | 266° |
| 2026-05-04 00:38 | 41.77026 | -88.47829 | 707 ft | 86 kts | 268° |
| 2026-05-04 00:38 | 41.77010 | -88.48678 | 872 ft | 88 kts | 266° |
| 2026-05-04 00:39 | 41.76981 | -88.49447 | 1145 ft | 81 kts | 262° |
| 2026-05-04 00:39 | 41.76901 | -88.50177 | 1360 ft | 77 kts | 236° |
| 2026-05-04 00:39 | 41.76397 | -88.50316 | 1533 ft | 93 kts | 154° |
| 2026-05-04 00:39 | 41.76009 | -88.49544 | 1632 ft | 114 kts | 117° |
| 2026-05-04 00:40 | 41.75947 | -88.48393 | 1688 ft | 129 kts | 94° |
| 2026-05-04 00:40 | 41.76027 | -88.47166 | 1722 ft | 136 kts | 88° |
| 2026-05-04 00:40 | 41.76099 | -88.46016 | 1724 ft | 118 kts | 94° |
| 2026-05-04 00:40 | 41.76112 | -88.44923 | 1598 ft | 110 kts | 94° |
| 2026-05-04 00:41 | 41.76290 | -88.43984 | 1416 ft | 103 kts | 36° |
| 2026-05-04 00:41 | 41.76881 | -88.43772 | 1278 ft | 84 kts | 322° |
| 2026-05-04 00:41 | 41.77105 | -88.44376 | 1079 ft | 76 kts | 258° |
| 2026-05-04 00:41 | 41.77046 | -88.45111 | 899 ft | 81 kts | 269° |
| 2026-05-04 00:42 | 41.77049 | -88.45845 | 790 ft | 75 kts | 267° |
| 2026-05-04 00:42 | 41.77040 | -88.46509 | 718 ft | 64 kts | 266° |
| 2026-05-04 00:42 | 41.77030 | -88.47015 | 706 ft | 46 kts | 269° |
| 2026-05-04 00:42 | 41.77028 | -88.47534 | 708 ft | 72 kts | 270° |
| 2026-05-04 00:43 | 41.77026 | -88.48325 | 748 ft | 93 kts | 266° |
| 2026-05-04 00:43 | 41.76995 | -88.49170 | 969 ft | 89 kts | 265° |
| 2026-05-04 00:43 | 41.76970 | -88.49975 | 1194 ft | 85 kts | 260° |
| 2026-05-04 00:43 | 41.76680 | -88.50614 | 1349 ft | 90 kts | 200° |
| 2026-05-04 00:44 | 41.76075 | -88.50205 | 1425 ft | 116 kts | 115° |
| 2026-05-04 00:44 | 41.76009 | -88.49160 | 1515 ft | 116 kts | 83° |
| 2026-05-04 00:44 | 41.76083 | -88.48058 | 1525 ft | 120 kts | 89° |
| 2026-05-04 00:44 | 41.76168 | -88.46969 | 1606 ft | 119 kts | 87° |
| 2026-05-04 00:45 | 41.76220 | -88.45849 | 1631 ft | 116 kts | 96° |
| 2026-05-04 00:45 | 41.76189 | -88.44811 | 1529 ft | 105 kts | 96° |
| 2026-05-04 00:45 | 41.76296 | -88.43898 | 1372 ft | 105 kts | 39° |
| 2026-05-04 00:45 | 41.76927 | -88.43823 | 1283 ft | 88 kts | 312° |
| 2026-05-04 00:46 | 41.77063 | -88.44490 | 1090 ft | 78 kts | 265° |
| 2026-05-04 00:46 | 41.77048 | -88.45200 | 920 ft | 75 kts | 267° |
| 2026-05-04 00:46 | 41.77044 | -88.45906 | 749 ft | 76 kts | 265° |
| 2026-05-04 00:46 | 41.77038 | -88.46573 | 709 ft | 64 kts | 265° |
| 2026-05-04 00:47 | 41.77030 | -88.47050 | 706 ft | 25 kts | 269° |
| 2026-05-04 00:47 | 41.76988 | -88.47161 | 706 ft | 15 kts | 181° |
| 2026-05-04 00:47 | 41.76921 | -88.47116 | 705 ft | 12 kts | 85° |
| 2026-05-04 00:47 | 41.76912 | -88.47009 | 700 ft | 12 kts | 151° |
| 2026-05-04 00:48 | 41.76857 | -88.46959 | 706 ft | 10 kts | 102° |
| 2026-05-04 00:48 | 41.76858 | -88.46857 | 706 ft | 12 kts | 89° |
| 2026-05-04 00:48 | 41.76847 | -88.46794 | 707 ft | 3 kts | 179° |
| 2026-05-04 00:48 | 41.76843 | -88.46794 | 699 ft | 0 kts | 181° |